Time;durP1;ratioP1;P1;durP2;ratioP2;P2;SDS_P1;SDS_P2;PMS_P1;PMS_P2;Temp;Humidity;BMP_temperature;BMP_pressure;BME280_temperature;BME280_humidity;BME280_pressure;Samples;Min_cycle;Max_cycle;Signal;HPM_P1;HPM_P2
2023/04/01 00:00:24;;;;;;;0.77;0.30;;;10.60;98.00;;;;;;5014757;28;20021;-67
2023/04/01 00:02:50;;;;;;;0.57;0.32;;;10.60;98.00;;;;;;5014788;28;20030;-67
2023/04/01 00:05:19;;;;;;;0.70;0.13;;;10.60;97.80;;;;;;5014782;28;20455;-68
2023/04/01 00:07:45;;;;;;;1.42;0.30;;;10.60;97.70;;;;;;5014593;28;20474;-67
2023/04/01 00:10:12;;;;;;;2.17;0.20;;;10.60;97.60;;;;;;5014580;28;20084;-67
2023/04/01 00:12:39;;;;;;;0.45;0.30;;;10.60;97.80;;;;;;5014546;28;20061;-67
2023/04/01 00:15:08;;;;;;;0.90;0.38;;;10.50;97.80;;;;;;5014592;28;20032;-67
2023/04/01 00:17:34;;;;;;;0.10;0.10;;;10.50;97.80;;;;;;5014465;28;20050;-67
2023/04/01 00:20:00;;;;;;;1.08;0.20;;;10.50;97.50;;;;;;5012758;28;20029;-67
2023/04/01 00:22:26;;;;;;;0.52;0.10;;;10.60;97.20;;;;;;5014444;28;20026;-67
2023/04/01 00:24:53;;;;;;;0.30;0.20;;;10.50;97.10;;;;;;5014481;28;20030;-67
2023/04/01 00:27:19;;;;;;;0.10;0.10;;;10.50;97.10;;;;;;5014501;28;20104;-67
2023/04/01 00:29:47;;;;;;;0.20;0.20;;;10.50;97.20;;;;;;5014075;28;20026;-67
2023/04/01 00:32:13;;;;;;;2.08;0.30;;;10.60;97.40;;;;;;5014160;28;20046;-67
2023/04/01 00:34:39;;;;;;;1.08;0.35;;;10.60;97.60;;;;;;5014154;28;20033;-67
2023/04/01 00:37:06;;;;;;;0.85;0.38;;;10.50;97.70;;;;;;5014207;28;20083;-67
2023/04/01 00:39:32;;;;;;;0.70;0.40;;;10.50;97.60;;;;;;5014219;28;20057;-67
2023/04/01 00:41:59;;;;;;;0.60;0.40;;;10.50;97.50;;;;;;5014065;28;20018;-67
2023/04/01 00:44:33;;;;;;;0.90;0.47;;;10.50;97.50;;;;;;5013838;28;20508;-67
2023/04/01 00:46:59;;;;;;;2.25;0.40;;;10.50;97.60;;;;;;5014121;28;20018;-67
2023/04/01 00:49:39;;;;;;;1.95;0.50;;;10.50;97.80;;;;;;5013975;28;20025;-67
2023/04/01 00:52:06;;;;;;;0.75;0.40;;;10.50;97.90;;;;;;5013962;28;20095;-67
2023/04/01 00:54:33;;;;;;;1.63;0.40;;;10.50;98.00;;;;;;5013704;28;20030;-67
2023/04/01 00:57:08;;;;;;;0.65;0.40;;;10.50;98.00;;;;;;5013459;28;20030;-67
2023/04/01 00:59:42;;;;;;;1.85;0.43;;;10.50;98.10;;;;;;5010722;28;20040;-68
2023/04/01 01:02:11;;;;;;;1.17;0.45;;;10.40;98.10;;;;;;5011061;28;20026;-67
2023/04/01 01:04:37;;;;;;;1.60;0.60;;;10.50;98.20;;;;;;5010536;28;20065;-67
2023/04/01 01:07:08;;;;;;;1.75;0.90;;;10.40;98.20;;;;;;5013098;28;20025;-67
2023/04/01 01:09:33;;;;;;;1.25;0.68;;;10.40;98.20;;;;;;5013767;28;20026;-68
2023/04/01 01:12:20;;;;;;;1.33;0.55;;;10.40;98.30;;;;;;5013456;28;20101;-67
2023/04/01 01:15:17;;;;;;;3.70;1.10;;;10.40;98.30;;;;;;5013444;28;20509;-67
2023/04/01 01:18:09;;;;;;;3.85;1.10;;;10.40;98.30;;;;;;5013496;28;20109;-68
2023/04/01 01:20:59;;;;;;;2.05;1.05;;;10.40;98.20;;;;;;5012897;28;20034;-67
2023/04/01 01:24:03;;;;;;;11.10;1.70;;;10.40;98.20;;;;;;5012793;28;20045;-67
2023/04/01 01:26:53;;;;;;;1.88;1.00;;;10.30;98.10;;;;;;5013339;28;20449;-67
2023/04/01 01:29:37;;;;;;;1.75;0.80;;;10.30;98.00;;;;;;5012851;28;20083;-67
2023/04/01 01:32:11;;;;;;;1.63;0.60;;;10.30;98.00;;;;;;5012491;28;20026;-67
2023/04/01 01:34:52;;;;;;;0.80;0.68;;;10.30;98.10;;;;;;5013357;28;20036;-67
2023/04/01 01:37:22;;;;;;;1.20;0.68;;;10.30;98.10;;;;;;5011775;28;20029;-67
2023/04/01 01:39:55;;;;;;;0.83;0.37;;;10.20;98.10;;;;;;5013299;28;20022;-67
2023/04/01 01:42:22;;;;;;;0.95;0.40;;;10.20;98.20;;;;;;5013037;28;20037;-67
2023/04/01 01:44:49;;;;;;;3.17;0.50;;;10.20;98.10;;;;;;5012576;28;20037;-67
2023/04/01 01:47:19;;;;;;;2.00;0.50;;;10.20;98.10;;;;;;5013024;28;20136;-67
2023/04/01 01:49:45;;;;;;;0.95;0.40;;;10.20;98.10;;;;;;5012872;28;20385;-67
2023/04/01 01:52:12;;;;;;;1.02;0.55;;;10.20;98.20;;;;;;5012916;28;20456;-67
2023/04/01 01:54:56;;;;;;;1.63;0.60;;;10.20;98.20;;;;;;5012878;28;20034;-67
2023/04/01 01:57:37;;;;;;;1.75;0.40;;;10.20;98.20;;;;;;5013050;28;20069;-67
2023/04/01 02:00:13;;;;;;;1.33;0.60;;;10.20;98.10;;;;;;5013053;28;20080;-67
2023/04/01 02:02:44;;;;;;;1.00;0.60;;;10.20;98.10;;;;;;5013133;28;20441;-67
2023/04/01 02:05:15;;;;;;;2.03;0.60;;;10.20;98.10;;;;;;5013155;28;20022;-67
2023/04/01 02:07:45;;;;;;;1.35;0.80;;;10.10;98.00;;;;;;5012982;28;20018;-67
2023/04/01 02:10:11;;;;;;;4.00;1.08;;;10.10;97.90;;;;;;5013106;28;20029;-68
2023/04/01 02:12:38;;;;;;;1.95;1.00;;;10.10;97.90;;;;;;5012888;28;20535;-67
2023/04/01 02:15:11;;;;;;;2.43;1.30;;;10.10;97.90;;;;;;5012835;28;20080;-67
2023/04/01 02:17:43;;;;;;;1.90;1.30;;;10.10;97.90;;;;;;5012795;28;20052;-67
2023/04/01 02:20:16;;;;;;;3.70;1.50;;;10.00;97.90;;;;;;5012870;28;20134;-67
2023/04/01 02:22:47;;;;;;;1.77;1.38;;;10.00;97.60;;;;;;5012779;28;20042;-66
2023/04/01 02:25:22;;;;;;;1.85;1.20;;;9.90;97.70;;;;;;5012681;28;20029;-67
2023/04/01 02:27:48;;;;;;;3.75;1.08;;;10.00;97.80;;;;;;5012964;28;20034;-67
2023/04/01 02:30:15;;;;;;;1.98;1.10;;;9.90;97.70;;;;;;5012698;28;20026;-67
2023/04/01 02:32:42;;;;;;;1.67;0.98;;;9.90;97.70;;;;;;5012633;28;20497;-67
2023/04/01 02:35:13;;;;;;;3.87;1.20;;;9.90;97.70;;;;;;5012606;28;20100;-67
2023/04/01 02:37:42;;;;;;;2.13;0.75;;;9.80;97.70;;;;;;5012360;28;20026;-67
2023/04/01 02:40:10;;;;;;;2.27;1.00;;;9.80;97.60;;;;;;5012596;28;20128;-67
2023/04/01 02:42:36;;;;;;;1.83;0.80;;;9.80;97.70;;;;;;5013574;28;20057;-67
2023/04/01 02:45:03;;;;;;;2.50;0.88;;;9.80;97.70;;;;;;5016147;28;20080;-67
2023/04/01 02:47:29;;;;;;;3.10;0.90;;;9.80;97.80;;;;;;5016350;28;20481;-67
2023/04/01 02:49:58;;;;;;;1.70;0.70;;;9.80;97.80;;;;;;5016100;28;20064;-67
2023/04/01 02:52:28;;;;;;;1.90;0.73;;;9.80;97.90;;;;;;5016143;28;20425;-67
2023/04/01 02:54:55;;;;;;;1.87;0.70;;;9.80;97.80;;;;;;5016061;28;20123;-67
2023/04/01 02:57:21;;;;;;;1.10;0.70;;;9.80;97.70;;;;;;5014846;28;20474;-67
2023/04/01 02:59:47;;;;;;;2.67;0.90;;;9.80;97.70;;;;;;5015912;28;20029;-67
2023/04/01 03:02:14;;;;;;;1.37;0.87;;;9.70;97.80;;;;;;5015958;28;20030;-67
2023/04/01 03:04:40;;;;;;;1.97;0.97;;;9.70;97.80;;;;;;5015745;28;20042;-67
2023/04/01 03:07:05;;;;;;;2.93;0.70;;;9.70;97.70;;;;;;5016021;28;20385;-67
2023/04/01 03:09:31;;;;;;;3.50;0.87;;;9.70;97.80;;;;;;5015895;28;20036;-67
2023/04/01 03:11:57;;;;;;;2.60;0.80;;;9.70;97.70;;;;;;5015828;28;20159;-67
2023/04/01 03:14:23;;;;;;;1.43;0.70;;;9.70;97.80;;;;;;5015711;28;20034;-67
2023/04/01 03:16:48;;;;;;;1.10;0.70;;;9.70;97.80;;;;;;5015512;28;20124;-67
2023/04/01 03:19:14;;;;;;;2.40;0.80;;;9.60;97.70;;;;;;5015389;28;20030;-67
2023/04/01 03:21:40;;;;;;;1.33;0.70;;;9.60;97.80;;;;;;5015668;28;20030;-67
2023/04/01 03:24:06;;;;;;;2.20;0.67;;;9.60;97.30;;;;;;5015632;28;20076;-67
2023/04/01 03:26:32;;;;;;;6.87;1.53;;;9.60;97.40;;;;;;5015640;28;20076;-67
2023/04/01 03:28:58;;;;;;;2.70;0.83;;;9.60;97.50;;;;;;5015596;28;20038;-67
2023/04/01 03:31:24;;;;;;;2.60;0.90;;;9.50;97.40;;;;;;5015406;28;20104;-67
2023/04/01 03:33:50;;;;;;;3.17;1.03;;;9.50;97.40;;;;;;5015267;28;20695;-67
2023/04/01 03:36:16;;;;;;;2.53;0.83;;;9.50;97.60;;;;;;5015228;28;20030;-67
2023/04/01 03:38:43;;;;;;;3.40;1.10;;;9.50;97.30;;;;;;5015171;28;20178;-67
2023/04/01 03:41:14;;;;;;;1.80;0.87;;;9.40;97.10;;;;;;5015168;28;20489;-67
2023/04/01 03:43:40;;;;;;;1.57;0.70;;;9.40;97.20;;;;;;5015206;28;20034;-67
2023/04/01 03:46:05;;;;;;;1.83;1.60;;;9.40;97.30;;;;;;5015108;28;20037;-67
2023/04/01 03:48:31;;;;;;;4.60;3.23;;;9.40;97.30;;;;;;5015205;28;20103;-67
2023/04/01 03:50:57;;;;;;;8.87;7.90;;;9.30;97.30;;;;;;5014707;28;20045;-67
2023/04/01 03:53:23;;;;;;;11.67;10.47;;;9.30;97.10;;;;;;5015132;28;20034;-68
2023/04/01 03:55:51;;;;;;;5.23;3.23;;;9.30;97.10;;;;;;5014426;28;20018;-67
2023/04/01 03:58:16;;;;;;;5.37;1.73;;;9.20;97.10;;;;;;5015263;28;20030;-67
2023/04/01 04:00:42;;;;;;;3.63;2.40;;;9.20;97.30;;;;;;5014569;28;20373;-67
2023/04/01 04:03:08;;;;;;;2.80;2.13;;;9.20;97.30;;;;;;5014541;28;20037;-67
2023/04/01 04:05:34;;;;;;;3.37;2.47;;;9.20;97.30;;;;;;5014949;28;20092;-67
2023/04/01 04:08:00;;;;;;;3.77;2.50;;;9.20;97.40;;;;;;5014781;28;20551;-67
2023/04/01 04:10:26;;;;;;;3.37;2.43;;;9.10;97.30;;;;;;5014870;28;20160;-67
2023/04/01 04:12:52;;;;;;;3.10;2.53;;;9.10;97.40;;;;;;5014822;28;20032;-67
2023/04/01 04:15:18;;;;;;;2.70;2.10;;;9.10;97.30;;;;;;5014609;28;20049;-67
2023/04/01 04:17:45;;;;;;;4.33;1.90;;;9.10;97.30;;;;;;5014632;28;20497;-67
2023/04/01 04:20:11;;;;;;;3.50;2.33;;;9.10;96.90;;;;;;5014663;28;20024;-67
2023/04/01 04:22:37;;;;;;;4.83;2.77;;;9.00;96.80;;;;;;5014614;28;20101;-67
2023/04/01 04:25:03;;;;;;;4.27;2.60;;;8.90;97.00;;;;;;5014443;28;20526;-67
2023/04/01 04:27:29;;;;;;;4.07;2.70;;;8.90;97.20;;;;;;5014239;28;20030;-66
2023/04/01 04:29:54;;;;;;;3.00;2.43;;;8.90;97.20;;;;;;5014490;28;20030;-66
2023/04/01 04:32:20;;;;;;;4.70;2.90;;;8.80;97.30;;;;;;5014244;28;20080;-68
2023/04/01 04:34:46;;;;;;;5.00;3.00;;;8.80;97.40;;;;;;5014453;28;20030;-67
2023/04/01 04:37:11;;;;;;;5.43;2.70;;;8.80;97.40;;;;;;5014230;28;20030;-67
2023/04/01 04:39:37;;;;;;;4.77;2.70;;;8.80;97.50;;;;;;5014252;28;20042;-67
2023/04/01 04:42:03;;;;;;;9.43;3.27;;;8.80;97.60;;;;;;5014120;28;20032;-67
2023/04/01 04:44:29;;;;;;;5.37;2.93;;;8.80;97.60;;;;;;5013962;28;20160;-67
2023/04/01 04:46:55;;;;;;;5.07;2.40;;;8.80;97.70;;;;;;5014006;28;20118;-67
2023/04/01 04:49:20;;;;;;;3.70;2.13;;;8.80;97.70;;;;;;5013958;28;20033;-67
2023/04/01 04:51:46;;;;;;;5.17;3.20;;;8.80;97.80;;;;;;5013917;28;20050;-67
2023/04/01 04:54:12;;;;;;;4.63;2.80;;;8.80;97.80;;;;;;5014087;28;20032;-67
2023/04/01 04:56:38;;;;;;;4.17;2.43;;;8.70;97.70;;;;;;5013867;28;20438;-67
2023/04/01 04:59:03;;;;;;;2.87;2.20;;;8.80;97.50;;;;;;5013823;28;20037;-67
2023/04/01 05:01:29;;;;;;;4.60;2.10;;;8.80;97.50;;;;;;5013807;28;20029;-67
2023/04/01 05:03:55;;;;;;;3.80;1.93;;;8.80;97.40;;;;;;5013932;28;20042;-67
2023/04/01 05:06:21;;;;;;;4.87;2.10;;;8.70;97.50;;;;;;5012709;28;20100;-67
2023/04/01 05:08:47;;;;;;;3.80;1.97;;;8.80;97.60;;;;;;5013749;28;20054;-67
2023/04/01 05:11:16;;;;;;;5.50;2.47;;;8.80;97.70;;;;;;5013669;28;20053;-67
2023/04/01 05:13:43;;;;;;;10.17;4.00;;;8.80;97.80;;;;;;5013515;28;20022;-66
2023/04/01 05:16:14;;;;;;;10.57;4.77;;;8.80;97.80;;;;;;5013546;28;20022;-67
2023/04/01 05:18:39;;;;;;;5.97;3.20;;;8.80;97.80;;;;;;5013520;28;20489;-67
2023/04/01 05:21:08;;;;;;;5.20;2.90;;;8.80;97.90;;;;;;5013391;28;20029;-67
2023/04/01 05:23:34;;;;;;;6.73;3.10;;;8.80;97.90;;;;;;5013224;28;20026;-67
2023/04/01 05:26:08;;;;;;;6.00;3.13;;;8.80;97.90;;;;;;5013432;28;20121;-67
2023/04/01 05:28:33;;;;;;;6.47;3.37;;;8.90;98.10;;;;;;5013297;28;20030;-67
2023/04/01 05:31:00;;;;;;;7.20;4.87;;;8.80;98.10;;;;;;5013520;28;20104;-67
2023/04/01 05:33:26;;;;;;;8.00;5.03;;;8.90;98.20;;;;;;5013186;28;20378;-67
2023/04/01 05:35:53;;;;;;;6.40;3.93;;;8.90;98.30;;;;;;5013147;28;20033;-67
2023/04/01 05:38:18;;;;;;;7.40;3.53;;;8.90;98.30;;;;;;5012824;28;20067;-67
2023/04/01 05:40:44;;;;;;;4.33;2.87;;;8.90;98.40;;;;;;5013055;28;20049;-67
2023/04/01 05:43:10;;;;;;;4.67;2.57;;;8.90;98.50;;;;;;5012749;28;20069;-67
2023/04/01 05:45:36;;;;;;;2.60;1.93;;;8.90;98.50;;;;;;5012865;28;20028;-67
2023/04/01 05:48:02;;;;;;;4.83;2.20;;;8.90;98.60;;;;;;5012934;28;20064;-66
2023/04/01 05:50:28;;;;;;;6.47;2.20;;;8.90;98.60;;;;;;5013098;28;20053;-67
2023/04/01 05:52:54;;;;;;;3.23;2.13;;;9.00;98.70;;;;;;5013118;28;20081;-66
2023/04/01 05:55:20;;;;;;;2.67;1.93;;;9.00;98.80;;;;;;5013089;28;20405;-67
2023/04/01 05:57:48;;;;;;;2.40;1.60;;;9.00;98.90;;;;;;5012805;28;20175;-67
2023/04/01 06:00:15;;;;;;;5.00;1.90;;;9.00;98.90;;;;;;5012988;28;20068;-67
2023/04/01 06:02:42;;;;;;;3.73;1.83;;;9.00;98.90;;;;;;5012791;28;20026;-67
2023/04/01 06:05:39;;;;;;;3.60;1.70;;;9.10;98.90;;;;;;5012703;28;20385;-67
2023/04/01 06:08:18;;;;;;;3.47;1.90;;;9.10;98.90;;;;;;5012285;28;20497;-67
2023/04/01 06:11:03;;;;;;;3.67;2.20;;;9.10;98.90;;;;;;5011841;28;20030;-66
2023/04/01 06:13:50;;;;;;;2.50;1.87;;;9.10;98.90;;;;;;5012109;28;20474;-66
2023/04/01 06:16:19;;;;;;;2.77;2.00;;;9.10;99.00;;;;;;5012702;28;20030;-67
2023/04/01 06:18:47;;;;;;;4.83;2.50;;;9.20;99.20;;;;;;5015748;28;20429;-67
2023/04/01 06:21:41;;;;;;;4.10;2.47;;;9.20;99.20;;;;;;5016710;28;20465;-67
2023/04/01 06:24:25;;;;;;;4.47;2.03;;;9.20;99.30;;;;;;5016582;28;20034;-67
2023/04/01 06:27:34;;;;;;;4.73;2.80;;;9.20;99.20;;;;;;5016813;28;20088;-67
2023/04/01 06:30:29;;;;;;;4.07;2.53;;;9.20;99.20;;;;;;4999568;28;20038;-67
2023/04/01 06:33:16;;;;;;;4.97;2.57;;;9.20;99.20;;;;;;5016462;28;20030;-66
2023/04/01 06:35:57;;;;;;;3.63;2.47;;;9.30;99.30;;;;;;5016521;28;20474;-67
2023/04/01 06:38:47;;;;;;;4.83;2.93;;;9.30;99.30;;;;;;5016265;28;20040;-67
2023/04/01 06:41:38;;;;;;;7.00;2.80;;;9.40;99.40;;;;;;5015981;28;20021;-67
2023/04/01 06:44:20;;;;;;;4.00;2.63;;;9.40;99.50;;;;;;5014316;28;20037;-66
2023/04/01 06:46:58;;;;;;;7.00;3.03;;;9.40;99.50;;;;;;5015872;28;20060;-66
2023/04/01 06:49:40;;;;;;;4.60;2.73;;;9.50;99.60;;;;;;5016513;28;20034;-66
2023/04/01 06:52:27;;;;;;;4.27;2.43;;;9.50;99.60;;;;;;5002499;28;20073;-66
2023/04/01 06:55:19;;;;;;;3.57;2.60;;;9.50;99.70;;;;;;4996049;28;20097;-67
2023/04/01 06:57:48;;;;;;;5.07;2.27;;;9.60;99.80;;;;;;4993222;28;20073;-67
2023/04/01 07:00:26;;;;;;;4.77;2.03;;;9.60;99.80;;;;;;4994730;28;20026;-67
2023/04/01 07:03:09;;;;;;;3.43;2.10;;;9.70;99.90;;;;;;4995960;28;20117;-67
2023/04/01 07:05:35;;;;;;;3.20;1.70;;;9.70;99.90;;;;;;4996082;28;20030;-67
2023/04/01 07:08:09;;;;;;;5.53;1.90;;;9.70;99.90;;;;;;4996051;28;20112;-66
2023/04/01 07:11:04;;;;;;;3.60;1.70;;;9.90;99.90;;;;;;4995785;28;20029;-67
2023/04/01 07:14:04;;;;;;;3.92;1.10;;;9.90;99.90;;;;;;4995606;28;20023;-67
2023/04/01 07:17:04;;;;;;;2.58;1.20;;;10.00;99.90;;;;;;4994683;28;20135;-67
2023/04/01 07:19:42;;;;;;;2.83;0.90;;;10.10;99.90;;;;;;5007592;28;20041;-69
2023/04/01 07:22:35;;;;;;;2.33;0.60;;;10.20;99.80;;;;;;4995750;28;20104;-69
2023/04/01 07:25:22;;;;;;;2.60;0.70;;;10.30;99.50;;;;;;5014737;28;20045;-68
2023/04/01 07:27:48;;;;;;;1.83;0.68;;;10.40;99.20;;;;;;5013709;28;20085;-67
2023/04/01 07:30:17;;;;;;;1.27;0.70;;;10.50;99.00;;;;;;5014321;28;20520;-67
2023/04/01 07:32:46;;;;;;;2.95;0.80;;;10.50;99.00;;;;;;5015427;28;20422;-68
2023/04/01 07:35:19;;;;;;;4.20;0.88;;;10.60;98.80;;;;;;5015298;28;20033;-67
2023/04/01 07:38:09;;;;;;;4.00;1.00;;;10.60;98.70;;;;;;5014814;28;20030;-67
2023/04/01 07:40:50;;;;;;;3.40;1.27;;;10.70;98.50;;;;;;5014898;28;20108;-67
2023/04/01 07:43:15;;;;;;;3.40;0.95;;;10.80;98.20;;;;;;5013650;28;20429;-68
2023/04/01 07:45:53;;;;;;;1.60;0.85;;;10.90;97.80;;;;;;5013400;28;20030;-68
2023/04/01 07:48:40;;;;;;;3.92;0.90;;;10.90;97.40;;;;;;5015077;28;20095;-68
2023/04/01 07:51:38;;;;;;;0.95;0.60;;;11.00;97.40;;;;;;5014731;28;20054;-67
2023/04/01 07:54:16;;;;;;;3.05;0.80;;;11.10;97.30;;;;;;5013102;28;20045;-66
2023/04/01 07:56:57;;;;;;;1.83;0.82;;;11.20;97.10;;;;;;5015227;28;20017;-67
2023/04/01 07:59:35;;;;;;;3.80;0.93;;;11.30;96.70;;;;;;5013740;28;20057;-67
2023/04/01 08:02:19;;;;;;;2.25;0.80;;;11.30;96.40;;;;;;5014955;28;20026;-67
2023/04/01 08:05:12;;;;;;;4.22;1.02;;;11.40;96.10;;;;;;5014385;28;20034;-67
2023/04/01 08:08:06;;;;;;;1.95;0.60;;;11.50;95.90;;;;;;5014111;28;20100;-67
2023/04/01 08:10:43;;;;;;;;;;;11.50;95.70;;;;;;5014312;28;20029;-67
2023/04/01 08:13:46;;;;;;;2.72;0.88;;;11.60;95.50;;;;;;5013983;28;19940;-67
2023/04/01 08:16:49;;;;;;;1.65;0.82;;;11.70;95.60;;;;;;5014706;28;20033;-68
2023/04/01 08:19:21;;;;;;;1.65;0.80;;;11.70;95.10;;;;;;5015177;28;20026;-67
2023/04/01 08:21:53;;;;;;;1.13;0.80;;;11.80;95.10;;;;;;5014548;28;20024;-69
2023/04/01 08:24:33;;;;;;;3.97;0.80;;;11.80;94.60;;;;;;5014657;28;20212;-69
2023/04/01 08:27:03;;;;;;;1.60;0.88;;;11.90;94.50;;;;;;5014662;28;20033;-68
2023/04/01 08:29:40;;;;;;;2.53;1.08;;;12.00;94.60;;;;;;5014641;28;20027;-68
2023/04/01 08:32:39;;;;;;;2.13;1.10;;;12.00;94.30;;;;;;5014454;28;20101;-67
2023/04/01 08:35:17;;;;;;;2.97;1.00;;;12.20;94.00;;;;;;5013387;28;20395;-67
2023/04/01 08:37:45;;;;;;;1.58;1.10;;;12.30;93.90;;;;;;5014395;28;20026;-67
2023/04/01 08:40:16;;;;;;;1.58;0.80;;;12.40;93.80;;;;;;5014164;28;20022;-69
2023/04/01 08:42:54;;;;;;;5.47;1.17;;;12.50;93.60;;;;;;5014310;28;20551;-69
2023/04/01 08:45:43;;;;;;;1.52;0.82;;;12.60;93.30;;;;;;5014390;28;20040;-70
2023/04/01 08:48:28;;;;;;;4.05;1.35;;;12.60;93.20;;;;;;5014226;28;20589;-68
2023/04/01 08:51:18;;;;;;;2.42;0.70;;;12.70;93.40;;;;;;5014057;28;20042;-70
2023/04/01 08:54:12;;;;;;;5.05;1.10;;;12.80;92.90;;;;;;5014245;28;20032;-68
2023/04/01 08:56:49;;;;;;;1.67;0.77;;;12.90;92.60;;;;;;5014212;28;20037;-67
2023/04/01 08:59:53;;;;;;;2.53;0.65;;;12.90;92.50;;;;;;5013937;28;20021;-68
2023/04/01 09:02:39;;;;;;;1.02;0.40;;;13.00;92.50;;;;;;5013921;28;20030;-68
2023/04/01 09:05:42;;;;;;;3.58;0.50;;;13.10;92.30;;;;;;5013793;28;20401;-68
2023/04/01 09:08:08;;;;;;;2.75;0.80;;;13.30;92.20;;;;;;5013810;28;20449;-67
2023/04/01 09:10:59;;;;;;;3.47;1.10;;;13.40;91.80;;;;;;5013949;28;20065;-67
2023/04/01 09:13:40;;;;;;;1.98;0.60;;;13.50;91.50;;;;;;5012511;28;20034;-68
2023/04/01 09:16:27;;;;;;;1.80;0.60;;;13.70;96.50;;;;;;5013910;28;20038;-68
2023/04/01 09:19:14;;;;;;;1.88;0.70;;;13.60;90.70;;;;;;5014007;28;20101;-67
2023/04/01 09:22:11;;;;;;;2.10;0.80;;;13.70;90.50;;;;;;5013401;28;20032;-68
2023/04/01 09:24:53;;;;;;;3.15;0.98;;;13.80;90.30;;;;;;5006414;28;20049;-68
2023/04/01 09:27:24;;;;;;;2.15;0.60;;;13.90;90.60;;;;;;4995742;28;20378;-67
2023/04/01 09:30:19;;;;;;;2.20;0.70;;;14.00;90.20;;;;;;5002880;28;20401;-67
2023/04/01 09:33:08;;;;;;;2.35;0.63;;;14.10;90.00;;;;;;4989431;28;20144;-68
2023/04/01 09:35:51;;;;;;;1.33;0.75;;;14.20;90.10;;;;;;4984979;28;20100;-68
2023/04/01 09:38:43;;;;;;;2.80;0.60;;;14.30;89.50;;;;;;5013019;28;20080;-68
2023/04/01 09:41:29;;;;;;;2.55;0.50;;;14.30;89.60;;;;;;5012213;28;20116;-68
2023/04/01 09:44:27;;;;;;;1.25;0.50;;;14.50;89.40;;;;;;5012375;28;20037;-69
2023/04/01 09:47:35;;;;;;;1.60;0.40;;;14.50;88.10;;;;;;5001477;28;20034;-69
2023/04/01 09:50:15;;;;;;;0.90;0.30;;;14.70;86.90;;;;;;5012155;28;20549;-67
2023/04/01 09:53:13;;;;;;;2.78;0.98;;;14.70;86.10;;;;;;5012011;28;20034;-69
2023/04/01 09:55:57;;;;;;;2.67;0.57;;;14.80;85.50;;;;;;4992618;28;20040;-68
2023/04/01 09:58:52;;;;;;;4.22;0.60;;;14.90;84.90;;;;;;5013095;28;20506;-68
2023/04/01 10:01:36;;;;;;;1.83;0.73;;;15.00;84.20;;;;;;5012843;28;20026;-68
2023/04/01 10:04:39;;;;;;;1.75;0.38;;;15.10;85.30;;;;;;5011624;28;20030;-68
2023/04/01 10:07:29;;;;;;;2.60;0.50;;;15.20;83.90;;;;;;5010918;28;20062;-68
2023/04/01 10:10:39;;;;;;;0.73;0.30;;;15.20;82.90;;;;;;5012993;28;20026;-68
2023/04/01 10:13:27;;;;;;;1.15;0.50;;;15.40;79.80;;;;;;5012939;28;20104;-68
2023/04/01 10:16:22;;;;;;;1.45;0.52;;;15.40;80.40;;;;;;5012632;28;20026;-69
2023/04/01 10:19:06;;;;;;;1.73;0.50;;;15.60;81.40;;;;;;5012733;28;20025;-68
2023/04/01 10:22:04;;;;;;;0.52;0.32;;;15.70;80.30;;;;;;5011693;28;20068;-70
2023/04/01 10:24:41;;;;;;;2.05;0.63;;;15.80;79.20;;;;;;4989967;28;20401;-69
2023/04/01 10:27:22;;;;;;;2.92;0.30;;;15.80;77.70;;;;;;5012894;28;20068;-70
2023/04/01 10:30:05;;;;;;;1.27;0.38;;;15.90;77.30;;;;;;5012944;28;20478;-69
2023/04/01 10:32:40;;;;;;;2.25;0.40;;;16.00;75.30;;;;;;5012698;28;20104;-70
2023/04/01 10:35:33;;;;;;;3.67;0.40;;;16.10;74.50;;;;;;5012806;28;20038;-69
2023/04/01 10:38:11;;;;;;;8.32;1.00;;;16.20;74.20;;;;;;5012794;28;20507;-71
2023/04/01 10:40:58;;;;;;;8.32;2.17;;;16.30;73.30;;;;;;5012883;28;20085;-69
2023/04/01 10:43:30;;;;;;;1.52;0.47;;;16.40;72.50;;;;;;5011466;28;20137;-70
2023/04/01 10:46:28;;;;;;;4.20;0.40;;;16.50;71.50;;;;;;5012781;28;20018;-69
2023/04/01 10:49:18;;;;;;;9.90;0.40;;;16.50;70.50;;;;;;5012653;28;20037;-68
2023/04/01 10:52:20;;;;;;;1.90;0.65;;;16.60;70.30;;;;;;5012276;28;20513;-68
2023/04/01 10:54:51;;;;;;;1.65;0.40;;;16.60;69.80;;;;;;5012729;28;20033;-68
2023/04/01 10:57:35;;;;;;;1.92;0.40;;;16.70;70.60;;;;;;5012617;28;20034;-68
2023/04/01 11:00:21;;;;;;;1.63;0.50;;;16.80;69.50;;;;;;5012556;28;20032;-68
2023/04/01 11:03:11;;;;;;;0.43;0.30;;;16.90;68.00;;;;;;5012630;28;20041;-68
2023/04/01 11:06:12;;;;;;;1.60;0.40;;;17.00;67.70;;;;;;5016366;28;20030;-69
2023/04/01 11:09:14;;;;;;;1.35;0.47;;;17.10;66.60;;;;;;5014908;28;20036;-68
2023/04/01 11:12:13;;;;;;;1.30;0.40;;;17.20;64.60;;;;;;4985859;28;20053;-68
2023/04/01 11:14:39;;;;;;;1.30;0.47;;;17.30;64.80;;;;;;5016229;28;20524;-69
2023/04/01 11:17:07;;;;;;;0.55;0.40;;;17.40;65.80;;;;;;5014572;28;20061;-68
2023/04/01 11:19:45;;;;;;;1.00;0.63;;;17.40;65.30;;;;;;5015781;28;20083;-68
2023/04/01 11:22:31;;;;;;;3.60;0.47;;;17.50;64.10;;;;;;5015961;28;20018;-69
2023/04/01 11:25:05;;;;;;;0.40;0.30;;;17.60;63.60;;;;;;5015611;28;20057;-68
2023/04/01 11:27:56;;;;;;;2.50;0.45;;;17.70;64.70;;;;;;5015883;28;20029;-68
2023/04/01 11:30:55;;;;;;;0.82;0.50;;;17.80;65.00;;;;;;5015769;28;20022;-69
2023/04/01 11:33:27;;;;;;;0.73;0.40;;;17.90;64.30;;;;;;5014440;28;20389;-68
2023/04/01 11:35:52;;;;;;;1.00;0.32;;;18.10;64.10;;;;;;5015729;28;20030;-68
2023/04/01 11:38:42;;;;;;;1.02;0.40;;;18.10;63.20;;;;;;5015410;28;20385;-68
2023/04/01 11:41:19;;;;;;;2.10;0.40;;;18.20;64.10;;;;;;5015536;28;20029;-68
2023/04/01 11:43:54;;;;;;;1.00;0.40;;;18.30;62.10;;;;;;5015501;28;20038;-69
2023/04/01 11:46:34;;;;;;;1.88;0.63;;;18.40;63.10;;;;;;5015464;28;20022;-69
2023/04/01 11:49:04;;;;;;;0.50;0.30;;;18.40;63.50;;;;;;5015294;28;20504;-69
2023/04/01 11:51:48;;;;;;;1.48;0.40;;;18.60;64.70;;;;;;5015165;28;20050;-68
2023/04/01 11:54:51;;;;;;;1.35;0.65;;;18.70;63.80;;;;;;5015149;28;20029;-69
2023/04/01 11:57:17;;;;;;;;;;;18.80;63.10;;;;;;5015779;28;20018;-68
2023/04/01 12:00:10;;;;;;;2.13;0.68;;;18.90;64.10;;;;;;5015139;28;20277;-68
2023/04/01 12:02:51;;;;;;;1.27;0.50;;;19.00;60.80;;;;;;5015255;28;20038;-69
2023/04/01 12:05:39;;;;;;;0.95;0.30;;;19.00;60.70;;;;;;5013890;28;20038;-68
2023/04/01 12:08:32;;;;;;;1.10;0.40;;;19.00;60.90;;;;;;5015144;28;20029;-69
2023/04/01 12:11:07;;;;;;;2.17;0.40;;;19.10;62.10;;;;;;5015134;28;20026;-68
2023/04/01 12:14:02;;;;;;;1.90;0.35;;;19.20;61.40;;;;;;5014834;28;20026;-68
2023/04/01 12:17:02;;;;;;;0.93;0.55;;;19.30;61.60;;;;;;5014560;28;20028;-69
2023/04/01 12:19:43;;;;;;;1.80;0.57;;;19.40;60.90;;;;;;5013609;28;20034;-68
2023/04/01 12:22:46;;;;;;;1.95;0.60;;;19.50;59.60;;;;;;5014896;28;20029;-69
2023/04/01 12:25:14;;;;;;;;;;;19.60;58.20;;;;;;5015059;28;20029;-68
2023/04/01 12:28:00;;;;;;;0.73;0.40;;;19.60;58.60;;;;;;5014525;28;19973;-69
2023/04/01 12:30:44;;;;;;;1.23;0.50;;;19.70;57.80;;;;;;5014605;28;20059;-68
2023/04/01 12:33:45;;;;;;;0.63;0.47;;;19.70;56.20;;;;;;5014471;28;20030;-69
2023/04/01 12:36:17;;;;;;;0.73;0.43;;;19.70;56.30;;;;;;5014464;28;20033;-68
2023/04/01 12:39:19;;;;;;;1.03;0.60;;;19.60;55.60;;;;;;5014409;28;20114;-68
2023/04/01 12:42:07;;;;;;;1.58;0.43;;;19.60;57.40;;;;;;5014511;28;20264;-69
2023/04/01 12:45:14;;;;;;;1.40;0.47;;;19.60;56.50;;;;;;5014331;28;20372;-68
2023/04/01 12:47:58;;;;;;;1.55;0.70;;;19.60;55.70;;;;;;4953866;29;20143;-68
2023/04/01 12:50:37;;;;;;;1.45;0.40;;;19.60;56.50;;;;;;4953599;28;20046;-69
2023/04/01 12:53:35;;;;;;;0.93;0.30;;;19.60;53.20;;;;;;4996292;28;20041;-69
2023/04/01 12:56:14;;;;;;;1.08;0.50;;;19.60;51.50;;;;;;5014084;28;20469;-69
2023/04/01 12:59:04;;;;;;;0.60;0.40;;;19.70;51.00;;;;;;5013811;28;20417;-69
2023/04/01 13:02:32;;;;;;;0.65;0.40;;;19.70;50.30;;;;;;5014018;28;20481;-68
2023/04/01 13:05:25;;;;;;;0.65;0.20;;;19.80;47.60;;;;;;4980851;28;20077;-69
2023/04/01 13:08:16;;;;;;;0.75;0.30;;;19.90;45.90;;;;;;5013959;28;20032;-68
2023/04/01 13:10:58;;;;;;;0.55;0.22;;;20.00;46.30;;;;;;5013806;28;20073;-68
2023/04/01 13:14:00;;;;;;;2.33;0.65;;;20.00;45.70;;;;;;5013753;28;20100;-68
2023/04/01 13:16:25;;;;;;;1.63;0.60;;;20.00;45.90;;;;;;5013729;28;20022;-68
2023/04/01 13:19:13;;;;;;;2.92;1.00;;;20.00;46.00;;;;;;5013500;28;20037;-69
2023/04/01 13:21:51;;;;;;;2.72;0.75;;;20.00;45.40;;;;;;5013526;28;20076;-69
2023/04/01 13:24:41;;;;;;;1.58;0.75;;;20.00;44.10;;;;;;5013723;28;20095;-68
2023/04/01 13:27:16;;;;;;;1.20;0.45;;;20.00;44.70;;;;;;5012969;28;20030;-68
2023/04/01 13:29:47;;;;;;;1.85;0.50;;;20.00;44.60;;;;;;5013508;28;20018;-69
2023/04/01 13:32:37;;;;;;;2.88;0.70;;;20.00;44.50;;;;;;5013509;28;20435;-68
2023/04/01 13:35:22;;;;;;;7.90;1.70;;;20.00;44.70;;;;;;5013392;28;20114;-69
2023/04/01 13:37:59;;;;;;;3.40;1.13;;;20.00;47.50;;;;;;5012021;28;20041;-68
2023/04/01 13:40:44;;;;;;;3.70;1.00;;;20.10;47.30;;;;;;5012925;28;20026;-68
2023/04/01 13:43:30;;;;;;;2.70;0.90;;;20.10;47.70;;;;;;5012856;28;20478;-68